sensor_id;sensor_type;location;lat;lon;timestamp;P1;durP1;ratioP1;P2;durP2;ratioP2
32760;SDS011;19126;47.472;7.850;2023-09-08T00:02:26;10.45;;;7.90;;
32760;SDS011;19126;47.472;7.850;2023-09-08T00:04:54;14.45;;;8.65;;
32760;SDS011;19126;47.472;7.850;2023-09-08T00:07:23;15.25;;;9.13;;
32760;SDS011;19126;47.472;7.850;2023-09-08T00:09:50;16.10;;;8.98;;
32760;SDS011;19126;47.472;7.850;2023-09-08T00:12:18;15.02;;;8.88;;
32760;SDS011;19126;47.472;7.850;2023-09-08T00:14:45;15.77;;;8.15;;
32760;SDS011;19126;47.472;7.850;2023-09-08T00:17:12;15.52;;;8.73;;
32760;SDS011;19126;47.472;7.850;2023-09-08T00:19:39;15.43;;;9.05;;
32760;SDS011;19126;47.472;7.850;2023-09-08T00:22:07;14.23;;;7.80;;
32760;SDS011;19126;47.472;7.850;2023-09-08T00:24:36;10.18;;;8.05;;
32760;SDS011;19126;47.472;7.850;2023-09-08T00:27:03;13.63;;;8.02;;
32760;SDS011;19126;47.472;7.850;2023-09-08T00:29:31;13.45;;;8.75;;
32760;SDS011;19126;47.472;7.850;2023-09-08T00:31:58;10.45;;;8.20;;
32760;SDS011;19126;47.472;7.850;2023-09-08T00:34:25;17.38;;;8.57;;
32760;SDS011;19126;47.472;7.850;2023-09-08T00:36:52;13.00;;;9.48;;
32760;SDS011;19126;47.472;7.850;2023-09-08T00:39:20;21.60;;;9.27;;
32760;SDS011;19126;47.472;7.850;2023-09-08T00:41:49;16.05;;;8.35;;
32760;SDS011;19126;47.472;7.850;2023-09-08T00:44:16;11.95;;;8.75;;
32760;SDS011;19126;47.472;7.850;2023-09-08T00:46:43;13.68;;;9.10;;
32760;SDS011;19126;47.472;7.850;2023-09-08T00:49:11;16.75;;;8.00;;
32760;SDS011;19126;47.472;7.850;2023-09-08T00:51:38;18.77;;;8.13;;
32760;SDS011;19126;47.472;7.850;2023-09-08T00:54:06;11.98;;;8.45;;
32760;SDS011;19126;47.472;7.850;2023-09-08T00:56:34;12.57;;;8.88;;
32760;SDS011;19126;47.472;7.850;2023-09-08T00:59:04;15.95;;;7.60;;
32760;SDS011;19126;47.472;7.850;2023-09-08T01:01:36;15.95;;;9.00;;
32760;SDS011;19126;47.472;7.850;2023-09-08T01:04:09;17.30;;;9.18;;
32760;SDS011;19126;47.472;7.850;2023-09-08T01:06:37;14.68;;;9.88;;
32760;SDS011;19126;47.472;7.850;2023-09-08T01:09:05;12.90;;;9.90;;
32760;SDS011;19126;47.472;7.850;2023-09-08T01:11:32;18.25;;;9.90;;
32760;SDS011;19126;47.472;7.850;2023-09-08T01:14:00;21.48;;;10.63;;
32760;SDS011;19126;47.472;7.850;2023-09-08T01:16:28;13.45;;;9.82;;
32760;SDS011;19126;47.472;7.850;2023-09-08T01:18:56;12.70;;;9.10;;
32760;SDS011;19126;47.472;7.850;2023-09-08T01:24:45;13.40;;;9.40;;
32760;SDS011;19126;47.472;7.850;2023-09-08T01:27:44;16.27;;;8.77;;
32760;SDS011;19126;47.472;7.850;2023-09-08T01:30:15;16.30;;;9.98;;
32760;SDS011;19126;47.472;7.850;2023-09-08T01:32:43;13.07;;;9.35;;
32760;SDS011;19126;47.472;7.850;2023-09-08T01:35:12;21.13;;;10.18;;
32760;SDS011;19126;47.472;7.850;2023-09-08T01:37:41;12.82;;;9.35;;
32760;SDS011;19126;47.472;7.850;2023-09-08T01:40:10;15.43;;;8.55;;
32760;SDS011;19126;47.472;7.850;2023-09-08T01:42:40;15.07;;;9.98;;
32760;SDS011;19126;47.472;7.850;2023-09-08T01:45:08;19.52;;;9.43;;
32760;SDS011;19126;47.472;7.850;2023-09-08T01:47:36;12.27;;;9.10;;
32760;SDS011;19126;47.472;7.850;2023-09-08T01:50:04;12.57;;;9.50;;
32760;SDS011;19126;47.472;7.850;2023-09-08T01:52:32;24.15;;;10.20;;
32760;SDS011;19126;47.472;7.850;2023-09-08T01:54:59;19.52;;;10.20;;
32760;SDS011;19126;47.472;7.850;2023-09-08T01:57:27;12.05;;;9.73;;
32760;SDS011;19126;47.472;7.850;2023-09-08T01:59:56;14.40;;;9.68;;
32760;SDS011;19126;47.472;7.850;2023-09-08T02:02:23;15.85;;;10.18;;
32760;SDS011;19126;47.472;7.850;2023-09-08T02:04:50;16.08;;;9.90;;
32760;SDS011;19126;47.472;7.850;2023-09-08T02:07:17;19.25;;;9.57;;
32760;SDS011;19126;47.472;7.850;2023-09-08T02:09:45;16.98;;;10.43;;
32760;SDS011;19126;47.472;7.850;2023-09-08T02:12:12;13.65;;;9.55;;
32760;SDS011;19126;47.472;7.850;2023-09-08T02:14:39;15.15;;;10.25;;
32760;SDS011;19126;47.472;7.850;2023-09-08T02:17:08;17.17;;;10.95;;
32760;SDS011;19126;47.472;7.850;2023-09-08T02:19:35;12.80;;;8.68;;
32760;SDS011;19126;47.472;7.850;2023-09-08T02:22:03;15.98;;;10.60;;
32760;SDS011;19126;47.472;7.850;2023-09-08T02:24:30;21.10;;;12.02;;
32760;SDS011;19126;47.472;7.850;2023-09-08T02:26:58;11.13;;;9.90;;
32760;SDS011;19126;47.472;7.850;2023-09-08T02:29:25;20.15;;;11.38;;
32760;SDS011;19126;47.472;7.850;2023-09-08T02:31:53;15.43;;;10.88;;
32760;SDS011;19126;47.472;7.850;2023-09-08T02:34:22;12.25;;;10.10;;
32760;SDS011;19126;47.472;7.850;2023-09-08T02:36:49;11.82;;;10.20;;
32760;SDS011;19126;47.472;7.850;2023-09-08T02:39:17;15.13;;;10.90;;
32760;SDS011;19126;47.472;7.850;2023-09-08T02:41:44;20.35;;;10.73;;
32760;SDS011;19126;47.472;7.850;2023-09-08T02:44:11;13.45;;;9.98;;
32760;SDS011;19126;47.472;7.850;2023-09-08T02:46:39;23.17;;;10.05;;
32760;SDS011;19126;47.472;7.850;2023-09-08T02:49:06;15.30;;;11.25;;
32760;SDS011;19126;47.472;7.850;2023-09-08T02:51:35;16.98;;;10.80;;
32760;SDS011;19126;47.472;7.850;2023-09-08T02:54:02;13.55;;;9.40;;
32760;SDS011;19126;47.472;7.850;2023-09-08T02:56:30;17.98;;;10.45;;
32760;SDS011;19126;47.472;7.850;2023-09-08T02:58:57;19.75;;;10.23;;
32760;SDS011;19126;47.472;7.850;2023-09-08T03:01:24;14.95;;;10.10;;
32760;SDS011;19126;47.472;7.850;2023-09-08T03:03:52;14.63;;;10.73;;
32760;SDS011;19126;47.472;7.850;2023-09-08T03:06:20;17.33;;;10.48;;
32760;SDS011;19126;47.472;7.850;2023-09-08T03:08:48;15.02;;;10.32;;
32760;SDS011;19126;47.472;7.850;2023-09-08T03:11:16;15.48;;;10.30;;
32760;SDS011;19126;47.472;7.850;2023-09-08T03:13:43;23.75;;;11.20;;
32760;SDS011;19126;47.472;7.850;2023-09-08T03:16:10;16.77;;;10.90;;
32760;SDS011;19126;47.472;7.850;2023-09-08T03:18:38;12.68;;;9.98;;
32760;SDS011;19126;47.472;7.850;2023-09-08T03:21:05;12.52;;;10.63;;
32760;SDS011;19126;47.472;7.850;2023-09-08T03:23:36;17.55;;;11.13;;
32760;SDS011;19126;47.472;7.850;2023-09-08T03:26:05;11.95;;;10.63;;
32760;SDS011;19126;47.472;7.850;2023-09-08T03:28:34;12.75;;;10.32;;
32760;SDS011;19126;47.472;7.850;2023-09-08T03:31:04;15.65;;;12.43;;
32760;SDS011;19126;47.472;7.850;2023-09-08T03:33:32;18.77;;;12.50;;
32760;SDS011;19126;47.472;7.850;2023-09-08T03:35:59;14.45;;;12.05;;
32760;SDS011;19126;47.472;7.850;2023-09-08T03:38:27;14.82;;;11.73;;
32760;SDS011;19126;47.472;7.850;2023-09-08T03:40:54;14.35;;;12.32;;
32760;SDS011;19126;47.472;7.850;2023-09-08T03:43:23;17.77;;;12.70;;
32760;SDS011;19126;47.472;7.850;2023-09-08T03:45:51;17.60;;;12.15;;
32760;SDS011;19126;47.472;7.850;2023-09-08T03:48:18;16.25;;;12.40;;
32760;SDS011;19126;47.472;7.850;2023-09-08T03:50:46;14.50;;;12.35;;
32760;SDS011;19126;47.472;7.850;2023-09-08T03:53:13;19.98;;;13.15;;
32760;SDS011;19126;47.472;7.850;2023-09-08T03:55:41;22.02;;;13.20;;
32760;SDS011;19126;47.472;7.850;2023-09-08T03:58:08;14.95;;;12.15;;
32760;SDS011;19126;47.472;7.850;2023-09-08T04:00:37;14.88;;;12.60;;
32760;SDS011;19126;47.472;7.850;2023-09-08T04:03:04;17.95;;;12.13;;
32760;SDS011;19126;47.472;7.850;2023-09-08T04:05:31;22.85;;;12.35;;
32760;SDS011;19126;47.472;7.850;2023-09-08T04:07:59;16.38;;;11.43;;
32760;SDS011;19126;47.472;7.850;2023-09-08T04:10:26;18.05;;;12.20;;
32760;SDS011;19126;47.472;7.850;2023-09-08T04:12:54;22.50;;;11.75;;
32760;SDS011;19126;47.472;7.850;2023-09-08T04:15:21;20.13;;;12.27;;
32760;SDS011;19126;47.472;7.850;2023-09-08T04:17:50;17.33;;;12.70;;
32760;SDS011;19126;47.472;7.850;2023-09-08T04:20:17;13.40;;;11.65;;
32760;SDS011;19126;47.472;7.850;2023-09-08T04:22:45;19.35;;;10.93;;
32760;SDS011;19126;47.472;7.850;2023-09-08T04:25:12;15.68;;;12.88;;
32760;SDS011;19126;47.472;7.850;2023-09-08T04:27:40;17.35;;;12.90;;
32760;SDS011;19126;47.472;7.850;2023-09-08T04:30:08;16.10;;;11.65;;
32760;SDS011;19126;47.472;7.850;2023-09-08T04:32:36;15.07;;;12.18;;
32760;SDS011;19126;47.472;7.850;2023-09-08T04:35:06;17.38;;;12.98;;
32760;SDS011;19126;47.472;7.850;2023-09-08T04:37:34;18.40;;;12.65;;
32760;SDS011;19126;47.472;7.850;2023-09-08T04:40:01;14.15;;;12.63;;
32760;SDS011;19126;47.472;7.850;2023-09-08T04:42:30;20.73;;;12.98;;
32760;SDS011;19126;47.472;7.850;2023-09-08T04:44:57;14.90;;;12.40;;
32760;SDS011;19126;47.472;7.850;2023-09-08T04:47:25;15.30;;;12.55;;
32760;SDS011;19126;47.472;7.850;2023-09-08T04:49:52;20.38;;;13.30;;
32760;SDS011;19126;47.472;7.850;2023-09-08T04:52:20;16.38;;;12.25;;
32760;SDS011;19126;47.472;7.850;2023-09-08T04:54:48;19.38;;;11.50;;
32760;SDS011;19126;47.472;7.850;2023-09-08T04:57:15;15.45;;;12.05;;
32760;SDS011;19126;47.472;7.850;2023-09-08T04:59:42;17.58;;;12.60;;
32760;SDS011;19126;47.472;7.850;2023-09-08T05:02:10;17.85;;;11.73;;
32760;SDS011;19126;47.472;7.850;2023-09-08T05:04:37;14.98;;;12.18;;
32760;SDS011;19126;47.472;7.850;2023-09-08T05:07:04;18.80;;;14.02;;
32760;SDS011;19126;47.472;7.850;2023-09-08T05:09:33;23.33;;;14.13;;
32760;SDS011;19126;47.472;7.850;2023-09-08T05:12:00;22.13;;;12.15;;
32760;SDS011;19126;47.472;7.850;2023-09-08T05:14:28;16.30;;;12.00;;
32760;SDS011;19126;47.472;7.850;2023-09-08T05:16:55;17.92;;;13.77;;
32760;SDS011;19126;47.472;7.850;2023-09-08T05:19:22;21.02;;;12.18;;
32760;SDS011;19126;47.472;7.850;2023-09-08T05:21:50;19.33;;;13.68;;
32760;SDS011;19126;47.472;7.850;2023-09-08T05:24:19;14.65;;;11.70;;
32760;SDS011;19126;47.472;7.850;2023-09-08T05:26:48;14.45;;;12.20;;
32760;SDS011;19126;47.472;7.850;2023-09-08T05:29:15;16.15;;;13.82;;
32760;SDS011;19126;47.472;7.850;2023-09-08T05:31:42;16.40;;;12.85;;
32760;SDS011;19126;47.472;7.850;2023-09-08T05:34:10;23.02;;;13.95;;
32760;SDS011;19126;47.472;7.850;2023-09-08T05:36:38;15.85;;;13.48;;
32760;SDS011;19126;47.472;7.850;2023-09-08T05:39:06;16.92;;;13.70;;
32760;SDS011;19126;47.472;7.850;2023-09-08T05:41:33;18.73;;;15.05;;
32760;SDS011;19126;47.472;7.850;2023-09-08T05:44:02;17.67;;;12.93;;
32760;SDS011;19126;47.472;7.850;2023-09-08T05:46:30;15.00;;;12.23;;
32760;SDS011;19126;47.472;7.850;2023-09-08T05:48:57;20.17;;;13.80;;
32760;SDS011;19126;47.472;7.850;2023-09-08T05:51:25;19.90;;;15.10;;
32760;SDS011;19126;47.472;7.850;2023-09-08T05:53:52;21.35;;;14.32;;
32760;SDS011;19126;47.472;7.850;2023-09-08T05:56:19;17.38;;;15.55;;
32760;SDS011;19126;47.472;7.850;2023-09-08T05:58:50;16.02;;;13.70;;
32760;SDS011;19126;47.472;7.850;2023-09-08T06:01:19;19.58;;;12.63;;
32760;SDS011;19126;47.472;7.850;2023-09-08T06:03:46;17.02;;;13.60;;
32760;SDS011;19126;47.472;7.850;2023-09-08T06:06:14;21.13;;;15.52;;
32760;SDS011;19126;47.472;7.850;2023-09-08T06:08:41;23.55;;;15.38;;
32760;SDS011;19126;47.472;7.850;2023-09-08T06:11:08;20.17;;;16.27;;
32760;SDS011;19126;47.472;7.850;2023-09-08T06:13:37;20.90;;;14.88;;
32760;SDS011;19126;47.472;7.850;2023-09-08T06:16:04;21.52;;;15.60;;
32760;SDS011;19126;47.472;7.850;2023-09-08T06:18:34;16.05;;;14.25;;
32760;SDS011;19126;47.472;7.850;2023-09-08T06:21:05;21.58;;;16.50;;
32760;SDS011;19126;47.472;7.850;2023-09-08T06:23:33;24.52;;;17.20;;
32760;SDS011;19126;47.472;7.850;2023-09-08T06:26:00;22.38;;;18.00;;
32760;SDS011;19126;47.472;7.850;2023-09-08T06:28:28;25.30;;;16.45;;
32760;SDS011;19126;47.472;7.850;2023-09-08T06:30:55;17.33;;;13.93;;
32760;SDS011;19126;47.472;7.850;2023-09-08T06:33:22;17.25;;;13.63;;
32760;SDS011;19126;47.472;7.850;2023-09-08T06:35:51;16.48;;;12.75;;
32760;SDS011;19126;47.472;7.850;2023-09-08T06:38:19;18.42;;;12.30;;
32760;SDS011;19126;47.472;7.850;2023-09-08T06:40:46;19.92;;;12.57;;
32760;SDS011;19126;47.472;7.850;2023-09-08T06:43:14;19.52;;;12.40;;
32760;SDS011;19126;47.472;7.850;2023-09-08T06:45:42;20.35;;;11.60;;
32760;SDS011;19126;47.472;7.850;2023-09-08T06:48:09;16.98;;;11.30;;
32760;SDS011;19126;47.472;7.850;2023-09-08T06:50:36;12.20;;;10.05;;
32760;SDS011;19126;47.472;7.850;2023-09-08T06:53:05;11.68;;;9.45;;
32760;SDS011;19126;47.472;7.850;2023-09-08T06:55:32;16.35;;;10.27;;
32760;SDS011;19126;47.472;7.850;2023-09-08T06:57:59;24.67;;;10.85;;
32760;SDS011;19126;47.472;7.850;2023-09-08T07:00:27;18.05;;;10.40;;
32760;SDS011;19126;47.472;7.850;2023-09-08T07:02:54;20.00;;;10.05;;
32760;SDS011;19126;47.472;7.850;2023-09-08T07:05:21;12.90;;;9.40;;
32760;SDS011;19126;47.472;7.850;2023-09-08T07:07:49;12.13;;;8.88;;
32760;SDS011;19126;47.472;7.850;2023-09-08T07:10:17;12.43;;;9.13;;
32760;SDS011;19126;47.472;7.850;2023-09-08T07:12:46;14.82;;;8.82;;
32760;SDS011;19126;47.472;7.850;2023-09-08T07:15:14;15.57;;;8.93;;
32760;SDS011;19126;47.472;7.850;2023-09-08T07:17:41;10.30;;;8.45;;
32760;SDS011;19126;47.472;7.850;2023-09-08T07:20:09;10.80;;;8.85;;
32760;SDS011;19126;47.472;7.850;2023-09-08T07:22:37;11.50;;;8.38;;
32760;SDS011;19126;47.472;7.850;2023-09-08T07:25:05;17.02;;;9.43;;
32760;SDS011;19126;47.472;7.850;2023-09-08T07:27:36;19.50;;;9.25;;
32760;SDS011;19126;47.472;7.850;2023-09-08T07:30:03;15.43;;;9.52;;
32760;SDS011;19126;47.472;7.850;2023-09-08T07:32:32;10.65;;;8.45;;
32760;SDS011;19126;47.472;7.850;2023-09-08T07:34:59;12.88;;;9.00;;
32760;SDS011;19126;47.472;7.850;2023-09-08T07:37:27;17.45;;;8.98;;
32760;SDS011;19126;47.472;7.850;2023-09-08T07:39:54;12.35;;;8.70;;
32760;SDS011;19126;47.472;7.850;2023-09-08T07:42:21;17.08;;;8.38;;
32760;SDS011;19126;47.472;7.850;2023-09-08T07:44:52;13.10;;;8.30;;
32760;SDS011;19126;47.472;7.850;2023-09-08T07:47:19;14.20;;;8.20;;
32760;SDS011;19126;47.472;7.850;2023-09-08T07:49:47;14.77;;;8.60;;
32760;SDS011;19126;47.472;7.850;2023-09-08T07:52:14;14.57;;;8.48;;
32760;SDS011;19126;47.472;7.850;2023-09-08T07:54:42;12.27;;;8.25;;
32760;SDS011;19126;47.472;7.850;2023-09-08T07:57:09;16.92;;;7.40;;
32760;SDS011;19126;47.472;7.850;2023-09-08T07:59:36;9.23;;;7.38;;
32760;SDS011;19126;47.472;7.850;2023-09-08T08:02:05;11.43;;;7.45;;
32760;SDS011;19126;47.472;7.850;2023-09-08T08:04:33;14.32;;;8.68;;
32760;SDS011;19126;47.472;7.850;2023-09-08T08:07:01;13.23;;;7.70;;
32760;SDS011;19126;47.472;7.850;2023-09-08T08:09:28;13.02;;;7.28;;
32760;SDS011;19126;47.472;7.850;2023-09-08T08:11:55;11.65;;;7.93;;
32760;SDS011;19126;47.472;7.850;2023-09-08T08:14:23;12.38;;;7.55;;
32760;SDS011;19126;47.472;7.850;2023-09-08T08:16:50;12.82;;;8.48;;
32760;SDS011;19126;47.472;7.850;2023-09-08T08:19:19;10.77;;;7.70;;
32760;SDS011;19126;47.472;7.850;2023-09-08T08:21:46;15.07;;;7.57;;
32760;SDS011;19126;47.472;7.850;2023-09-08T08:24:13;11.02;;;7.43;;
32760;SDS011;19126;47.472;7.850;2023-09-08T08:26:41;9.00;;;7.25;;
32760;SDS011;19126;47.472;7.850;2023-09-08T08:29:08;14.02;;;7.47;;
32760;SDS011;19126;47.472;7.850;2023-09-08T08:31:35;12.60;;;7.70;;
32760;SDS011;19126;47.472;7.850;2023-09-08T08:34:03;11.45;;;7.13;;
32760;SDS011;19126;47.472;7.850;2023-09-08T08:36:32;10.20;;;6.50;;
32760;SDS011;19126;47.472;7.850;2023-09-08T08:38:59;10.65;;;6.90;;
32760;SDS011;19126;47.472;7.850;2023-09-08T08:41:27;8.70;;;6.60;;
32760;SDS011;19126;47.472;7.850;2023-09-08T08:43:55;14.13;;;6.75;;
32760;SDS011;19126;47.472;7.850;2023-09-08T08:46:24;11.00;;;6.63;;
32760;SDS011;19126;47.472;7.850;2023-09-08T08:48:53;16.70;;;6.78;;
32760;SDS011;19126;47.472;7.850;2023-09-08T08:51:22;7.95;;;6.53;;
32760;SDS011;19126;47.472;7.850;2023-09-08T08:53:52;23.05;;;6.63;;
32760;SDS011;19126;47.472;7.850;2023-09-08T08:56:20;10.55;;;6.63;;
32760;SDS011;19126;47.472;7.850;2023-09-08T08:58:48;8.75;;;6.57;;
32760;SDS011;19126;47.472;7.850;2023-09-08T09:01:16;10.15;;;6.57;;
32760;SDS011;19126;47.472;7.850;2023-09-08T09:03:46;22.75;;;7.22;;
32760;SDS011;19126;47.472;7.850;2023-09-08T09:06:16;10.07;;;5.97;;
32760;SDS011;19126;47.472;7.850;2023-09-08T09:08:44;9.90;;;6.88;;
32760;SDS011;19126;47.472;7.850;2023-09-08T09:11:14;15.38;;;6.22;;
32760;SDS011;19126;47.472;7.850;2023-09-08T09:13:42;10.43;;;7.32;;
32760;SDS011;19126;47.472;7.850;2023-09-08T09:16:09;11.88;;;6.50;;
32760;SDS011;19126;47.472;7.850;2023-09-08T09:18:48;11.45;;;5.78;;
32760;SDS011;19126;47.472;7.850;2023-09-08T09:21:21;8.70;;;6.65;;
32760;SDS011;19126;47.472;7.850;2023-09-08T09:23:49;10.88;;;6.18;;
32760;SDS011;19126;47.472;7.850;2023-09-08T09:26:24;12.25;;;6.75;;
32760;SDS011;19126;47.472;7.850;2023-09-08T09:28:52;7.85;;;6.22;;
32760;SDS011;19126;47.472;7.850;2023-09-08T09:31:23;10.65;;;6.22;;
32760;SDS011;19126;47.472;7.850;2023-09-08T09:34:00;11.97;;;6.57;;
32760;SDS011;19126;47.472;7.850;2023-09-08T09:36:31;11.80;;;6.25;;
32760;SDS011;19126;47.472;7.850;2023-09-08T09:38:59;10.90;;;6.03;;
32760;SDS011;19126;47.472;7.850;2023-09-08T09:41:29;12.60;;;6.50;;
32760;SDS011;19126;47.472;7.850;2023-09-08T09:43:56;7.85;;;5.45;;
32760;SDS011;19126;47.472;7.850;2023-09-08T09:46:24;13.35;;;5.82;;
32760;SDS011;19126;47.472;7.850;2023-09-08T09:48:55;9.40;;;6.22;;
32760;SDS011;19126;47.472;7.850;2023-09-08T09:51:22;14.05;;;5.88;;
32760;SDS011;19126;47.472;7.850;2023-09-08T09:53:50;13.82;;;5.55;;
32760;SDS011;19126;47.472;7.850;2023-09-08T09:56:19;13.48;;;6.63;;
32760;SDS011;19126;47.472;7.850;2023-09-08T09:58:50;10.40;;;5.90;;
32760;SDS011;19126;47.472;7.850;2023-09-08T10:01:20;12.57;;;5.85;;
32760;SDS011;19126;47.472;7.850;2023-09-08T10:03:49;9.45;;;5.70;;
32760;SDS011;19126;47.472;7.850;2023-09-08T10:06:16;10.82;;;5.63;;
32760;SDS011;19126;47.472;7.850;2023-09-08T10:08:47;10.18;;;5.72;;
32760;SDS011;19126;47.472;7.850;2023-09-08T10:11:15;10.85;;;6.05;;
32760;SDS011;19126;47.472;7.850;2023-09-08T10:13:45;10.87;;;6.10;;
32760;SDS011;19126;47.472;7.850;2023-09-08T10:16:19;14.48;;;5.80;;
32760;SDS011;19126;47.472;7.850;2023-09-08T10:18:47;13.20;;;6.60;;
32760;SDS011;19126;47.472;7.850;2023-09-08T10:21:15;17.30;;;6.55;;
32760;SDS011;19126;47.472;7.850;2023-09-08T10:23:47;8.63;;;5.60;;
32760;SDS011;19126;47.472;7.850;2023-09-08T10:26:21;11.13;;;5.57;;
32760;SDS011;19126;47.472;7.850;2023-09-08T10:28:53;8.77;;;4.88;;
32760;SDS011;19126;47.472;7.850;2023-09-08T10:31:24;11.68;;;5.25;;
32760;SDS011;19126;47.472;7.850;2023-09-08T10:33:53;11.10;;;5.28;;
32760;SDS011;19126;47.472;7.850;2023-09-08T10:36:21;11.35;;;5.72;;
32760;SDS011;19126;47.472;7.850;2023-09-08T10:38:49;18.80;;;5.05;;
32760;SDS011;19126;47.472;7.850;2023-09-08T10:41:28;9.73;;;5.18;;
32760;SDS011;19126;47.472;7.850;2023-09-08T10:43:57;15.77;;;5.40;;
32760;SDS011;19126;47.472;7.850;2023-09-08T10:46:31;13.50;;;5.35;;
32760;SDS011;19126;47.472;7.850;2023-09-08T10:49:03;8.13;;;4.32;;
32760;SDS011;19126;47.472;7.850;2023-09-08T10:51:33;12.35;;;4.85;;
32760;SDS011;19126;47.472;7.850;2023-09-08T10:54:01;13.98;;;4.78;;
32760;SDS011;19126;47.472;7.850;2023-09-08T10:56:31;11.85;;;5.05;;
32760;SDS011;19126;47.472;7.850;2023-09-08T10:59:19;15.55;;;5.20;;
32760;SDS011;19126;47.472;7.850;2023-09-08T11:01:52;7.57;;;4.28;;
32760;SDS011;19126;47.472;7.850;2023-09-08T11:04:21;8.80;;;4.93;;
32760;SDS011;19126;47.472;7.850;2023-09-08T11:06:51;7.75;;;4.43;;
32760;SDS011;19126;47.472;7.850;2023-09-08T11:09:18;8.10;;;4.50;;
32760;SDS011;19126;47.472;7.850;2023-09-08T11:11:48;9.10;;;5.00;;
32760;SDS011;19126;47.472;7.850;2023-09-08T11:14:16;5.25;;;4.35;;
32760;SDS011;19126;47.472;7.850;2023-09-08T11:16:43;7.78;;;4.63;;
32760;SDS011;19126;47.472;7.850;2023-09-08T11:19:12;8.77;;;4.35;;
32760;SDS011;19126;47.472;7.850;2023-09-08T11:21:39;14.23;;;4.55;;
32760;SDS011;19126;47.472;7.850;2023-09-08T11:24:06;11.00;;;4.70;;
32760;SDS011;19126;47.472;7.850;2023-09-08T11:26:35;7.72;;;4.70;;
32760;SDS011;19126;47.472;7.850;2023-09-08T11:29:04;12.63;;;4.68;;
32760;SDS011;19126;47.472;7.850;2023-09-08T11:31:32;11.30;;;5.05;;
32760;SDS011;19126;47.472;7.850;2023-09-08T11:34:00;10.32;;;4.55;;
32760;SDS011;19126;47.472;7.850;2023-09-08T11:36:29;11.13;;;4.47;;
32760;SDS011;19126;47.472;7.850;2023-09-08T11:38:56;8.00;;;5.00;;
32760;SDS011;19126;47.472;7.850;2023-09-08T11:41:23;10.77;;;4.60;;
32760;SDS011;19126;47.472;7.850;2023-09-08T11:43:51;6.78;;;4.85;;
32760;SDS011;19126;47.472;7.850;2023-09-08T11:46:18;6.85;;;4.78;;
32760;SDS011;19126;47.472;7.850;2023-09-08T11:48:46;4.70;;;4.10;;
32760;SDS011;19126;47.472;7.850;2023-09-08T11:51:13;9.95;;;3.97;;
32760;SDS011;19126;47.472;7.850;2023-09-08T11:53:42;11.43;;;4.43;;
32760;SDS011;19126;47.472;7.850;2023-09-08T11:56:10;7.75;;;4.60;;
32760;SDS011;19126;47.472;7.850;2023-09-08T11:58:38;9.40;;;4.57;;
32760;SDS011;19126;47.472;7.850;2023-09-08T12:01:05;8.80;;;4.53;;
32760;SDS011;19126;47.472;7.850;2023-09-08T12:03:33;16.50;;;5.13;;
32760;SDS011;19126;47.472;7.850;2023-09-08T12:06:00;10.07;;;4.50;;
32760;SDS011;19126;47.472;7.850;2023-09-08T12:08:28;9.93;;;4.53;;
32760;SDS011;19126;47.472;7.850;2023-09-08T12:10:58;8.75;;;4.90;;
32760;SDS011;19126;47.472;7.850;2023-09-08T12:13:25;9.90;;;4.72;;
32760;SDS011;19126;47.472;7.850;2023-09-08T12:15:52;8.30;;;4.20;;
32760;SDS011;19126;47.472;7.850;2023-09-08T12:18:36;9.25;;;4.72;;
32760;SDS011;19126;47.472;7.850;2023-09-08T12:21:05;11.50;;;4.65;;
32760;SDS011;19126;47.472;7.850;2023-09-08T12:23:32;10.60;;;4.63;;
32760;SDS011;19126;47.472;7.850;2023-09-08T12:26:01;13.65;;;4.68;;
32760;SDS011;19126;47.472;7.850;2023-09-08T12:28:30;6.38;;;4.55;;
32760;SDS011;19126;47.472;7.850;2023-09-08T12:30:58;12.02;;;4.45;;
32760;SDS011;19126;47.472;7.850;2023-09-08T12:33:25;9.00;;;4.35;;
32760;SDS011;19126;47.472;7.850;2023-09-08T12:35:53;7.18;;;4.25;;
32760;SDS011;19126;47.472;7.850;2023-09-08T12:38:20;9.63;;;4.90;;
32760;SDS011;19126;47.472;7.850;2023-09-08T12:40:48;9.65;;;4.63;;
32760;SDS011;19126;47.472;7.850;2023-09-08T12:43:17;10.55;;;5.05;;
32760;SDS011;19126;47.472;7.850;2023-09-08T12:45:44;12.57;;;4.93;;
32760;SDS011;19126;47.472;7.850;2023-09-08T12:48:12;13.85;;;5.40;;
32760;SDS011;19126;47.472;7.850;2023-09-08T12:50:39;6.10;;;4.45;;
32760;SDS011;19126;47.472;7.850;2023-09-08T12:53:06;12.30;;;4.57;;
32760;SDS011;19126;47.472;7.850;2023-09-08T12:55:34;8.70;;;4.70;;
32760;SDS011;19126;47.472;7.850;2023-09-08T12:58:01;6.45;;;4.53;;
32760;SDS011;19126;47.472;7.850;2023-09-08T13:00:30;5.07;;;4.25;;
32760;SDS011;19126;47.472;7.850;2023-09-08T13:02:57;10.55;;;4.70;;
32760;SDS011;19126;47.472;7.850;2023-09-08T13:05:24;8.43;;;4.90;;
32760;SDS011;19126;47.472;7.850;2023-09-08T13:07:52;13.18;;;5.53;;
32760;SDS011;19126;47.472;7.850;2023-09-08T13:10:19;23.35;;;4.90;;
32760;SDS011;19126;47.472;7.850;2023-09-08T13:12:47;9.18;;;4.82;;
32760;SDS011;19126;47.472;7.850;2023-09-08T13:15:14;12.82;;;4.45;;
32760;SDS011;19126;47.472;7.850;2023-09-08T13:17:43;14.13;;;4.60;;
32760;SDS011;19126;47.472;7.850;2023-09-08T13:20:11;14.10;;;4.75;;
32760;SDS011;19126;47.472;7.850;2023-09-08T13:22:38;18.08;;;5.43;;
32760;SDS011;19126;47.472;7.850;2023-09-08T13:25:06;6.28;;;5.22;;
32760;SDS011;19126;47.472;7.850;2023-09-08T13:27:34;8.57;;;5.07;;
32760;SDS011;19126;47.472;7.850;2023-09-08T13:30:08;4.53;;;4.13;;
32760;SDS011;19126;47.472;7.850;2023-09-08T13:32:36;9.00;;;4.55;;
32760;SDS011;19126;47.472;7.850;2023-09-08T13:35:06;9.65;;;4.50;;
32760;SDS011;19126;47.472;7.850;2023-09-08T13:37:33;7.03;;;4.53;;
32760;SDS011;19126;47.472;7.850;2023-09-08T13:40:03;15.00;;;5.20;;
32760;SDS011;19126;47.472;7.850;2023-09-08T13:42:31;6.97;;;4.45;;
32760;SDS011;19126;47.472;7.850;2023-09-08T13:44:59;15.57;;;4.88;;
32760;SDS011;19126;47.472;7.850;2023-09-08T13:47:26;9.88;;;4.10;;
32760;SDS011;19126;47.472;7.850;2023-09-08T13:49:53;11.77;;;4.63;;
32760;SDS011;19126;47.472;7.850;2023-09-08T13:52:22;11.13;;;4.57;;
32760;SDS011;19126;47.472;7.850;2023-09-08T13:54:50;9.55;;;4.72;;
32760;SDS011;19126;47.472;7.850;2023-09-08T13:57:17;10.68;;;4.68;;
32760;SDS011;19126;47.472;7.850;2023-09-08T13:59:46;8.27;;;4.65;;
32760;SDS011;19126;47.472;7.850;2023-09-08T14:02:14;7.80;;;4.40;;
32760;SDS011;19126;47.472;7.850;2023-09-08T14:04:42;6.88;;;3.63;;
32760;SDS011;19126;47.472;7.850;2023-09-08T14:07:09;11.75;;;4.25;;
32760;SDS011;19126;47.472;7.850;2023-09-08T14:09:38;9.13;;;4.60;;
32760;SDS011;19126;47.472;7.850;2023-09-08T14:12:05;13.00;;;4.43;;
32760;SDS011;19126;47.472;7.850;2023-09-08T14:14:33;8.82;;;3.97;;
32760;SDS011;19126;47.472;7.850;2023-09-08T14:17:00;9.93;;;4.72;;
32760;SDS011;19126;47.472;7.850;2023-09-08T14:19:28;6.78;;;4.00;;
32760;SDS011;19126;47.472;7.850;2023-09-08T14:21:55;14.30;;;4.28;;
32760;SDS011;19126;47.472;7.850;2023-09-08T14:24:23;18.33;;;4.40;;
32760;SDS011;19126;47.472;7.850;2023-09-08T14:26:52;10.82;;;4.35;;
32760;SDS011;19126;47.472;7.850;2023-09-08T14:29:20;12.15;;;4.15;;
32760;SDS011;19126;47.472;7.850;2023-09-08T14:31:48;9.18;;;4.00;;
32760;SDS011;19126;47.472;7.850;2023-09-08T14:34:16;9.88;;;4.65;;
32760;SDS011;19126;47.472;7.850;2023-09-08T14:36:44;6.20;;;4.10;;
32760;SDS011;19126;47.472;7.850;2023-09-08T14:39:12;5.88;;;3.78;;
32760;SDS011;19126;47.472;7.850;2023-09-08T14:41:40;8.77;;;4.15;;
32760;SDS011;19126;47.472;7.850;2023-09-08T14:44:09;8.15;;;3.70;;